Time,TemperatureF,DewpointF,PressureIn,WindDirection,WindDirectionDegrees,WindSpeedMPH,WindSpeedGustMPH,Humidity,HourlyPrecipIn,Conditions,Clouds,dailyrainin,SoftwareType,DateUTC
2013-04-28 00:00:00,76.6,62.6,30.07,ENE,68,5.8,5.8,62,0.00,CLR,,0.00,WeatherDisplay:10.37,2013-04-28 04:00:00,
2013-04-28 00:01:00,76.6,62.6,30.07,ENE,68,5.8,5.8,62,0.00,CLR,,0.00,WeatherDisplay:10.37,2013-04-28 04:01:00,
2013-04-28 00:03:00,76.6,62.6,30.07,ENE,68,5.8,5.8,62,0.00,CLR,,0.00,WeatherDisplay:10.37,2013-04-28 04:03:00,
2013-04-28 00:08:00,76.6,63.1,30.07,ESE,112,5.8,5.8,63,0.00,CLR,,0.00,WeatherDisplay:10.37,2013-04-28 04:08:00,
2013-04-28 00:13:00,76.5,62.9,30.07,SE,135,11.5,11.5,63,0.00,CLR,,0.00,WeatherDisplay:10.37,2013-04-28 04:13:00,
2013-04-28 00:18:00,76.5,62.9,30.07,NE,45,4.6,4.7,63,0.00,CLR,,0.00,WeatherDisplay:10.37,2013-04-28 04:18:00,
2013-04-28 00:23:00,76.5,63.4,30.07,East,90,8.1,8.1,64,0.00,CLR,,0.00,WeatherDisplay:10.37,2013-04-28 04:23:00,
2013-04-28 00:28:00,76.5,62.9,30.07,ESE,112,9.2,9.2,63,0.00,CLR,,0.00,WeatherDisplay:10.37,2013-04-28 04:28:00,
2013-04-28 00:33:00,76.3,63.2,30.07,East,90,5.8,5.8,64,0.00,CLR,,0.00,WeatherDisplay:10.37,2013-04-28 04:33:00,
2013-04-28 00:38:00,76.3,63.6,30.06,NNW,338,6.9,6.9,65,0.00,CLR,,0.00,WeatherDisplay:10.37,2013-04-28 04:38:00,
2013-04-28 00:43:00,76.1,63.5,30.06,SE,135,6.9,6.9,65,0.00,CLR,,0.00,WeatherDisplay:10.37,2013-04-28 04:43:00,
2013-04-28 00:48:00,76.1,63.5,30.06,ESE,112,8.1,8.1,65,0.00,CLR,,0.00,WeatherDisplay:10.37,2013-04-28 04:48:00,
2013-04-28 00:53:00,75.9,63.3,30.06,ENE,68,4.6,4.6,65,0.00,CLR,,0.00,WeatherDisplay:10.37,2013-04-28 04:53:00,
2013-04-28 00:58:00,76.1,63.5,30.06,ENE,68,8.1,8.1,65,0.00,CLR,,0.00,WeatherDisplay:10.37,2013-04-28 04:58:00,
2013-04-28 01:03:00,76.1,63.0,30.06,East,90,5.8,5.8,64,0.00,CLR,,0.00,WeatherDisplay:10.37,2013-04-28 05:03:00,
2013-04-28 01:08:00,75.9,62.4,30.06,ENE,68,5.8,5.8,63,0.00,CLR,,0.00,WeatherDisplay:10.37,2013-04-28 05:08:00,
2013-04-28 01:13:00,75.9,62.9,30.06,SSW,202,4.6,5.4,64,0.00,CLR,,0.00,WeatherDisplay:10.37,2013-04-28 05:13:00,
2013-04-28 01:18:00,75.9,62.9,30.04,East,90,4.6,5.3,64,0.00,CLR,,0.00,WeatherDisplay:10.37,2013-04-28 05:18:00,
2013-04-28 01:23:00,75.7,63.1,30.04,ENE,68,5.8,5.8,65,0.00,CLR,,0.00,WeatherDisplay:10.37,2013-04-28 05:23:00,
2013-04-28 01:28:00,75.7,63.6,30.04,NE,45,6.9,6.9,66,0.00,CLR,,0.00,WeatherDisplay:10.37,2013-04-28 05:28:00,
2013-04-28 01:33:00,75.7,63.6,30.04,East,90,4.6,4.6,66,0.00,CLR,,0.00,WeatherDisplay:10.37,2013-04-28 05:33:00,
2013-04-28 01:38:00,75.7,63.6,30.04,ESE,112,6.9,6.9,66,0.00,CLR,,0.00,WeatherDisplay:10.37,2013-04-28 05:38:00,
2013-04-28 01:43:00,75.6,63.4,30.04,ENE,68,5.8,5.8,66,0.00,CLR,,0.00,WeatherDisplay:10.37,2013-04-28 05:43:00,
2013-04-28 01:48:00,75.7,64.0,30.04,ENE,68,5.8,5.8,67,0.00,CLR,,0.00,WeatherDisplay:10.37,2013-04-28 05:48:00,
2013-04-28 01:53:00,75.7,64.0,30.04,ENE,68,6.9,6.9,67,0.00,CLR,,0.00,WeatherDisplay:10.37,2013-04-28 05:53:00,
2013-04-28 01:58:00,75.6,64.3,30.04,East,90,8.1,8.1,68,0.00,CLR,,0.00,WeatherDisplay:10.37,2013-04-28 05:58:00,
2013-04-28 02:03:00,75.4,64.1,30.04,ENE,68,4.6,4.6,68,0.00,CLR,,0.00,WeatherDisplay:10.37,2013-04-28 06:03:00,
2013-04-28 02:08:00,75.4,63.7,30.04,ENE,68,9.2,9.2,67,0.00,CLR,,0.00,WeatherDisplay:10.37,2013-04-28 06:08:00,
2013-04-28 02:13:00,75.4,63.2,30.04,South,180,3.5,4.9,66,0.00,CLR,,0.00,WeatherDisplay:10.37,2013-04-28 06:13:00,
2013-04-28 02:18:00,75.4,63.2,30.04,ESE,112,8.1,8.1,66,0.00,CLR,,0.00,WeatherDisplay:10.37,2013-04-28 06:18:00,
2013-04-28 02:23:00,75.4,62.8,30.04,ENE,68,4.6,4.6,65,0.00,CLR,,0.00,WeatherDisplay:10.37,2013-04-28 06:23:00,
2013-04-28 02:28:00,75.4,63.7,30.04,East,90,6.9,6.9,67,0.00,CLR,,0.00,WeatherDisplay:10.37,2013-04-28 06:28:00,
2013-04-28 02:33:00,75.4,63.7,30.04,East,90,6.9,6.9,67,0.00,CLR,,0.00,WeatherDisplay:10.37,2013-04-28 06:33:00,
2013-04-28 02:38:00,75.2,63.5,30.03,NE,45,5.8,5.8,67,0.00,CLR,,0.00,WeatherDisplay:10.37,2013-04-28 06:38:00,
2013-04-28 02:43:00,75.2,63.5,30.03,East,90,3.5,4.8,67,0.00,CLR,,0.00,WeatherDisplay:10.37,2013-04-28 06:43:00,
2013-04-28 02:48:00,75.4,63.7,30.03,SE,135,5.8,5.8,67,0.00,CLR,,0.00,WeatherDisplay:10.37,2013-04-28 06:48:00,
2013-04-28 02:53:00,75.4,63.7,30.03,SE,135,4.6,4.6,67,0.00,CLR,,0.00,WeatherDisplay:10.37,2013-04-28 06:53:00,
2013-04-28 02:58:00,75.2,63.5,30.02,ENE,68,8.1,8.1,67,0.00,CLR,,0.00,WeatherDisplay:10.37,2013-04-28 06:58:00,
2013-04-28 03:03:00,75.0,62.9,30.02,East,90,4.6,4.6,66,0.00,CLR,,0.00,WeatherDisplay:10.37,2013-04-28 07:03:00,
2013-04-28 03:08:00,74.8,62.7,30.02,NE,45,5.8,5.8,66,0.00,CLR,,0.00,WeatherDisplay:10.37,2013-04-28 07:08:00,
2013-04-28 03:13:00,74.8,63.1,30.02,NE,45,6.9,6.9,67,0.00,CLR,,0.00,WeatherDisplay:10.37,2013-04-28 07:13:00,
2013-04-28 03:18:00,74.8,63.1,30.02,NE,45,5.8,5.8,67,0.00,CLR,,0.00,WeatherDisplay:10.37,2013-04-28 07:18:00,
2013-04-28 03:23:00,75.0,63.3,30.02,ENE,68,6.9,6.9,67,0.00,CLR,,0.00,WeatherDisplay:10.37,2013-04-28 07:23:00,
2013-04-28 03:28:00,75.0,63.7,30.02,ESE,112,5.8,5.8,68,0.00,CLR,,0.00,WeatherDisplay:10.37,2013-04-28 07:28:00,
2013-04-28 03:33:00,74.8,63.6,30.02,ESE,112,3.5,4.1,68,0.00,CLR,,0.00,WeatherDisplay:10.37,2013-04-28 07:33:00,
2013-04-28 03:38:00,74.7,63.4,30.02,SE,135,6.9,6.9,68,0.00,CLR,,0.00,WeatherDisplay:10.37,2013-04-28 07:38:00,
2013-04-28 03:43:00,74.7,63.4,30.02,NNE,22,5.8,5.8,68,0.00,CLR,,0.00,WeatherDisplay:10.37,2013-04-28 07:43:00,
2013-04-28 03:48:00,74.7,63.4,30.02,ENE,68,6.9,6.9,68,0.00,CLR,,0.00,WeatherDisplay:10.37,2013-04-28 07:48:00,
2013-04-28 03:53:00,74.7,63.0,30.02,ESE,112,5.8,5.8,67,0.00,CLR,,0.00,WeatherDisplay:10.37,2013-04-28 07:53:00,
2013-04-28 03:58:00,74.7,63.0,30.01,ENE,68,6.9,6.9,67,0.00,CLR,,0.00,WeatherDisplay:10.37,2013-04-28 07:58:00,
2013-04-28 04:03:00,74.7,63.0,30.01,ENE,68,4.6,4.9,67,0.00,CLR,,0.00,WeatherDisplay:10.37,2013-04-28 08:03:00,
2013-04-28 04:08:00,74.7,63.0,30.01,SE,135,5.8,5.8,67,0.00,CLR,,0.00,WeatherDisplay:10.37,2013-04-28 08:08:00,
2013-04-28 04:13:00,74.7,63.0,30.01,ENE,68,5.8,5.8,67,0.00,CLR,,0.00,WeatherDisplay:10.37,2013-04-28 08:13:00,
2013-04-28 04:18:00,74.5,63.2,30.01,East,90,5.8,5.8,68,0.00,CLR,,0.00,WeatherDisplay:10.37,2013-04-28 08:18:00,
2013-04-28 04:23:00,74.7,63.4,30.01,ESE,112,5.8,5.8,68,0.00,CLR,,0.00,WeatherDisplay:10.37,2013-04-28 08:23:00,
2013-04-28 04:28:00,74.5,63.2,30.01,ENE,68,5.8,5.8,68,0.00,CLR,,0.00,WeatherDisplay:10.37,2013-04-28 08:28:00,
2013-04-28 04:33:00,74.7,63.4,30.01,SE,135,3.5,3.7,68,0.00,CLR,,0.00,WeatherDisplay:10.37,2013-04-28 08:33:00,
2013-04-28 04:38:00,74.7,63.0,30.01,NE,45,5.8,5.8,67,0.00,CLR,,0.00,WeatherDisplay:10.37,2013-04-28 08:38:00,
2013-04-28 04:43:00,74.5,62.8,30.01,ESE,112,3.5,3.7,67,0.00,CLR,,0.00,WeatherDisplay:10.37,2013-04-28 08:43:00,
2013-04-28 04:48:00,74.7,63.0,30.01,East,90,4.6,4.6,67,0.00,CLR,,0.00,WeatherDisplay:10.37,2013-04-28 08:48:00,
2013-04-28 04:53:00,74.5,62.8,30.01,ENE,68,4.6,4.6,67,0.00,CLR,,0.00,WeatherDisplay:10.37,2013-04-28 08:53:00,
2013-04-28 04:58:00,74.5,62.4,30.01,ENE,68,6.9,6.9,66,0.00,CLR,,0.00,WeatherDisplay:10.37,2013-04-28 08:58:00,
2013-04-28 05:03:00,74.5,62.4,30.01,NNW,338,6.9,6.9,66,0.00,CLR,,0.00,WeatherDisplay:10.37,2013-04-28 09:03:00,
2013-04-28 05:08:00,74.5,62.4,30.01,East,90,6.9,6.9,66,0.00,CLR,,0.00,WeatherDisplay:10.37,2013-04-28 09:08:00,
2013-04-28 05:13:00,74.5,62.4,30.01,ENE,68,5.8,5.8,66,0.00,CLR,,0.00,WeatherDisplay:10.37,2013-04-28 09:13:00,
2013-04-28 05:18:00,74.7,63.0,30.01,ENE,68,9.2,9.2,67,0.00,CLR,,0.00,WeatherDisplay:10.37,2013-04-28 09:18:00,
2013-04-28 05:23:00,74.5,62.4,30.01,SE,135,8.1,8.1,66,0.00,CLR,,0.00,WeatherDisplay:10.37,2013-04-28 09:23:00,
2013-04-28 05:29:00,74.5,62.4,30.01,ENE,68,5.8,5.8,66,0.00,CLR,,0.00,WeatherDisplay:10.37,2013-04-28 09:29:00,
2013-04-28 05:34:00,74.7,63.0,30.01,South,180,8.1,8.1,67,0.00,CLR,,0.00,WeatherDisplay:10.37,2013-04-28 09:34:00,
2013-04-28 05:39:00,74.5,62.4,30.00,East,90,8.1,8.1,66,0.00,CLR,,0.00,WeatherDisplay:10.37,2013-04-28 09:39:00,
2013-04-28 05:44:00,74.3,62.2,30.00,ESE,112,4.6,4.6,66,0.00,CLR,,0.00,WeatherDisplay:10.37,2013-04-28 09:44:00,
2013-04-28 05:49:00,74.3,62.2,30.00,ENE,68,9.2,9.2,66,0.00,CLR,,0.00,WeatherDisplay:10.37,2013-04-28 09:49:00,
2013-04-28 05:54:00,74.3,62.2,30.00,East,90,6.9,6.9,66,0.00,CLR,,0.00,WeatherDisplay:10.37,2013-04-28 09:54:00,
2013-04-28 05:59:00,74.3,62.2,30.00,ENE,68,6.9,6.9,66,0.00,CLR,,0.00,WeatherDisplay:10.37,2013-04-28 09:59:00,
2013-04-28 06:04:00,74.3,62.2,30.00,East,90,6.9,6.9,66,0.00,CLR,,0.00,WeatherDisplay:10.37,2013-04-28 10:04:00,
2013-04-28 06:09:00,74.3,62.2,30.00,East,90,4.6,4.6,66,0.00,CLR,,0.00,WeatherDisplay:10.37,2013-04-28 10:09:00,
2013-04-28 06:14:00,74.3,62.2,30.00,ESE,112,6.9,6.9,66,0.00,CLR,,0.00,WeatherDisplay:10.37,2013-04-28 10:14:00,
2013-04-28 06:19:00,74.1,62.5,30.00,ESE,112,6.9,6.9,67,0.00,CLR,,0.00,WeatherDisplay:10.37,2013-04-28 10:19:00,
2013-04-28 06:24:00,74.1,62.5,30.00,ESE,112,6.9,6.9,67,0.00,CLR,,0.00,WeatherDisplay:10.37,2013-04-28 10:24:00,
2013-04-28 06:29:00,74.3,62.6,30.00,SE,135,6.9,6.9,67,0.00,CLR,,0.00,WeatherDisplay:10.37,2013-04-28 10:29:00,
2013-04-28 06:34:00,74.1,62.5,30.00,ENE,68,4.6,4.6,67,0.00,CLR,,0.00,WeatherDisplay:10.37,2013-04-28 10:34:00,
2013-04-28 06:39:00,74.3,62.6,30.01,East,90,5.8,5.8,67,0.00,CLR,,0.00,WeatherDisplay:10.37,2013-04-28 10:39:00,
2013-04-28 06:44:00,74.3,63.1,30.01,ESE,112,5.8,5.8,68,0.00,CLR,,0.00,WeatherDisplay:10.37,2013-04-28 10:44:00,
2013-04-28 06:49:00,74.3,63.1,30.01,ESE,112,3.5,4.1,68,0.00,CLR,,0.00,WeatherDisplay:10.37,2013-04-28 10:49:00,
2013-04-28 06:54:00,74.5,63.2,30.01,ENE,68,6.9,6.9,68,0.00,CLR,,0.00,WeatherDisplay:10.37,2013-04-28 10:54:00,
2013-04-28 06:59:00,74.3,63.1,30.02,ESE,112,5.8,5.8,68,0.00,CLR,,0.00,WeatherDisplay:10.37,2013-04-28 10:59:00,
2013-04-28 07:04:00,74.5,63.2,30.02,SE,135,8.1,8.1,68,0.00,CLR,,0.00,WeatherDisplay:10.37,2013-04-28 11:04:00,
2013-04-28 07:09:00,74.7,63.4,30.02,ESE,112,3.5,4.0,68,0.00,CLR,,0.00,WeatherDisplay:10.37,2013-04-28 11:09:00,
2013-04-28 07:14:00,74.7,63.4,30.02,SSE,158,6.9,6.9,68,0.00,CLR,,0.00,WeatherDisplay:10.37,2013-04-28 11:14:00,
2013-04-28 07:19:00,74.7,63.0,30.02,ESE,112,6.9,6.9,67,0.00,CLR,,0.00,WeatherDisplay:10.37,2013-04-28 11:19:00,
2013-04-28 07:24:00,74.8,63.1,30.02,ESE,112,4.6,4.6,67,0.00,CLR,,0.00,WeatherDisplay:10.37,2013-04-28 11:24:00,
2013-04-28 07:29:00,75.0,63.3,30.02,East,90,6.9,6.9,67,0.00,CLR,,0.00,WeatherDisplay:10.37,2013-04-28 11:29:00,
2013-04-28 07:34:00,75.2,63.1,30.02,ENE,68,9.2,9.2,66,0.00,CLR,,0.00,WeatherDisplay:10.37,2013-04-28 11:34:00,
2013-04-28 07:39:00,75.2,62.6,30.02,ESE,112,4.6,4.8,65,0.00,CLR,,0.00,WeatherDisplay:10.37,2013-04-28 11:39:00,
2013-04-28 07:44:00,75.2,62.6,30.02,East,90,4.6,4.6,65,0.00,CLR,,0.00,WeatherDisplay:10.37,2013-04-28 11:44:00,
2013-04-28 07:49:00,75.4,62.8,30.02,SE,135,5.8,5.8,65,0.00,CLR,,0.00,WeatherDisplay:10.37,2013-04-28 11:49:00,
2013-04-28 07:54:00,75.6,63.0,30.02,SE,135,9.2,9.2,65,0.00,CLR,,0.00,WeatherDisplay:10.37,2013-04-28 11:54:00,
2013-04-28 07:59:00,75.6,62.5,30.02,East,90,4.6,4.8,64,0.00,CLR,,0.00,WeatherDisplay:10.37,2013-04-28 11:59:00,
2013-04-28 08:04:00,75.9,63.3,30.02,ESE,112,4.6,4.6,65,0.00,CLR,,0.00,WeatherDisplay:10.37,2013-04-28 12:04:00,
2013-04-28 08:09:00,76.1,63.0,30.02,SE,135,3.5,3.7,64,0.00,CLR,,0.00,WeatherDisplay:10.37,2013-04-28 12:09:00,
2013-04-28 08:14:00,76.6,63.1,30.02,ENE,68,9.2,9.2,63,0.00,CLR,,0.00,WeatherDisplay:10.37,2013-04-28 12:14:00,
2013-04-28 08:19:00,76.8,63.3,30.04,ENE,68,6.9,6.9,63,0.00,CLR,,0.00,WeatherDisplay:10.37,2013-04-28 12:19:00,
2013-04-28 08:24:00,77.0,63.4,30.04,SE,135,8.1,8.1,63,0.00,CLR,,0.00,WeatherDisplay:10.37,2013-04-28 12:24:00,
2013-04-28 08:29:00,77.2,63.6,30.04,East,90,8.1,8.1,63,0.00,CLR,,0.00,WeatherDisplay:10.37,2013-04-28 12:29:00,
2013-04-28 08:34:00,77.5,63.5,30.04,ENE,68,8.1,8.1,62,0.00,CLR,,0.00,WeatherDisplay:10.37,2013-04-28 12:34:00,
2013-04-28 08:39:00,77.5,63.5,30.03,ESE,112,8.1,8.1,62,0.00,CLR,,0.00,WeatherDisplay:10.37,2013-04-28 12:39:00,
2013-04-28 08:44:00,77.9,63.8,30.03,ESE,112,6.9,6.9,62,0.00,CLR,,0.00,WeatherDisplay:10.37,2013-04-28 12:44:00,
2013-04-28 08:49:00,77.9,63.8,30.03,ESE,112,5.8,5.8,62,0.00,CLR,,0.00,WeatherDisplay:10.37,2013-04-28 12:49:00,
2013-04-28 08:54:00,78.3,63.7,30.03,ENE,68,6.9,6.9,61,0.00,CLR,,0.00,WeatherDisplay:10.37,2013-04-28 12:54:00,
2013-04-28 08:59:00,78.4,63.9,30.04,ESE,112,5.8,5.8,61,0.00,CLR,,0.00,WeatherDisplay:10.37,2013-04-28 12:59:00,
2013-04-28 09:04:00,78.6,63.6,30.04,SSE,158,5.8,5.8,60,0.00,CLR,,0.00,WeatherDisplay:10.37,2013-04-28 13:04:00,
2013-04-28 09:09:00,78.8,63.7,30.04,SE,135,5.8,5.8,60,0.00,CLR,,0.00,WeatherDisplay:10.37,2013-04-28 13:09:00,
2013-04-28 09:14:00,79.0,63.9,30.04,East,90,8.1,8.1,60,0.00,CLR,,0.00,WeatherDisplay:10.37,2013-04-28 13:14:00,
2013-04-28 09:19:00,79.2,63.6,30.04,ESE,112,5.8,5.8,59,0.00,CLR,,0.00,WeatherDisplay:10.37,2013-04-28 13:19:00,
2013-04-28 09:24:00,79.7,64.1,30.04,ENE,68,6.9,6.9,59,0.00,CLR,,0.00,WeatherDisplay:10.37,2013-04-28 13:24:00,
2013-04-28 09:29:00,79.3,63.8,30.04,East,90,5.8,5.8,59,0.00,CLR,,0.00,WeatherDisplay:10.37,2013-04-28 13:29:00,
2013-04-28 09:34:00,79.7,64.1,30.04,ESE,112,9.2,9.2,59,0.00,CLR,,0.00,WeatherDisplay:10.37,2013-04-28 13:34:00,
2013-04-28 09:39:00,80.1,64.0,30.05,East,90,8.1,8.1,58,0.00,CLR,,0.00,WeatherDisplay:10.37,2013-04-28 13:39:00,
2013-04-28 09:44:00,80.2,64.1,30.05,East,90,5.8,5.8,58,0.00,CLR,,0.00,WeatherDisplay:10.37,2013-04-28 13:44:00,
2013-04-28 09:49:00,80.2,64.1,30.05,ESE,112,10.4,10.4,58,0.00,CLR,,0.00,WeatherDisplay:10.37,2013-04-28 13:49:00,
2013-04-28 09:54:00,80.8,64.6,30.05,NE,45,9.2,9.2,58,0.00,CLR,,0.00,WeatherDisplay:10.37,2013-04-28 13:54:00,
2013-04-28 09:59:00,80.8,64.1,30.05,ENE,68,5.8,5.8,57,0.00,CLR,,0.00,WeatherDisplay:10.37,2013-04-28 13:59:00,
2013-04-28 10:04:00,81.1,64.5,30.05,NE,45,8.1,8.1,57,0.00,CLR,,0.00,WeatherDisplay:10.37,2013-04-28 14:04:00,
2013-04-28 10:09:00,81.1,64.0,30.05,West,270,6.9,6.9,56,0.00,CLR,,0.00,WeatherDisplay:10.37,2013-04-28 14:09:00,
2013-04-28 10:14:00,81.3,63.6,30.05,ESE,112,8.1,8.1,55,0.00,CLR,,0.00,WeatherDisplay:10.37,2013-04-28 14:14:00,
2013-04-28 10:19:00,81.5,64.8,30.05,SE,135,5.8,5.8,57,0.00,CLR,,0.00,WeatherDisplay:10.37,2013-04-28 14:19:00,
2013-04-28 10:24:00,81.7,64.5,30.05,ESE,112,8.1,8.1,56,0.00,CLR,,0.00,WeatherDisplay:10.37,2013-04-28 14:24:00,
2013-04-28 10:29:00,82.2,64.4,30.05,ESE,112,5.8,5.8,55,0.00,CLR,,0.00,WeatherDisplay:10.37,2013-04-28 14:29:00,
2013-04-28 10:34:00,82.0,64.8,30.05,East,90,6.9,6.9,56,0.00,CLR,,0.00,WeatherDisplay:10.37,2013-04-28 14:34:00,
2013-04-28 10:39:00,82.4,65.1,30.05,ENE,68,6.9,6.9,56,0.00,CLR,,0.00,WeatherDisplay:10.37,2013-04-28 14:39:00,
2013-04-28 10:44:00,82.6,65.3,30.05,ESE,112,9.2,9.2,56,0.00,CLR,,0.00,WeatherDisplay:10.37,2013-04-28 14:44:00,
2013-04-28 10:49:00,82.9,66.1,30.05,SE,135,6.9,6.9,57,0.00,CLR,,0.00,WeatherDisplay:10.37,2013-04-28 14:49:00,
2013-04-28 10:54:00,83.1,65.8,30.05,ESE,112,6.9,6.9,56,0.00,CLR,,0.00,WeatherDisplay:10.37,2013-04-28 14:54:00,
2013-04-28 10:59:00,82.9,65.6,30.06,ENE,68,6.9,6.9,56,0.00,CLR,,0.00,WeatherDisplay:10.37,2013-04-28 14:59:00,
2013-04-28 11:04:00,82.9,65.1,30.06,ENE,68,8.1,8.1,55,0.00,CLR,,0.00,WeatherDisplay:10.37,2013-04-28 15:04:00,
2013-04-28 11:09:00,83.7,65.8,30.06,North,0,4.6,4.6,55,0.00,CLR,,0.00,WeatherDisplay:10.37,2013-04-28 15:09:00,
2013-04-28 11:14:00,83.3,66.0,30.06,SE,135,5.8,5.8,56,0.00,CLR,,0.00,WeatherDisplay:10.37,2013-04-28 15:14:00,
2013-04-28 11:19:00,83.5,66.1,30.06,SSE,158,2.3,4.6,56,0.00,CLR,,0.00,WeatherDisplay:10.37,2013-04-28 15:19:00,
2013-04-28 11:24:00,83.8,66.5,30.06,SE,135,5.8,5.8,56,0.00,CLR,,0.00,WeatherDisplay:10.37,2013-04-28 15:24:00,
2013-04-28 11:29:00,83.7,65.8,30.06,NNE,22,6.9,6.9,55,0.00,CLR,,0.00,WeatherDisplay:10.37,2013-04-28 15:29:00,
2013-04-28 11:34:00,83.8,66.5,30.06,SE,135,8.1,8.1,56,0.00,CLR,,0.00,WeatherDisplay:10.37,2013-04-28 15:34:00,
2013-04-28 11:39:00,84.4,67.0,30.06,SE,135,6.9,6.9,56,0.00,CLR,,0.00,WeatherDisplay:10.37,2013-04-28 15:39:00,
2013-04-28 11:44:00,83.8,66.5,30.06,SE,135,6.9,6.9,56,0.00,CLR,,0.00,WeatherDisplay:10.37,2013-04-28 15:44:00,
2013-04-28 11:49:00,83.8,66.5,30.06,ESE,112,5.8,5.8,56,0.00,CLR,,0.00,WeatherDisplay:10.37,2013-04-28 15:49:00,
2013-04-28 11:54:00,84.4,67.0,30.06,ESE,112,6.9,6.9,56,0.00,CLR,,0.00,WeatherDisplay:10.37,2013-04-28 15:54:00,
2013-04-28 11:59:00,84.4,67.0,30.06,ESE,112,4.6,4.6,56,0.00,CLR,,0.00,WeatherDisplay:10.37,2013-04-28 15:59:00,
2013-04-28 12:04:00,84.4,67.0,30.06,ENE,68,4.6,4.6,56,0.00,CLR,,0.00,WeatherDisplay:10.37,2013-04-28 16:04:00,
2013-04-28 12:09:00,84.7,66.8,30.06,NE,45,6.9,6.9,55,0.00,CLR,,0.00,WeatherDisplay:10.37,2013-04-28 16:09:00,
2013-04-28 12:14:00,84.7,67.3,30.06,East,90,8.1,8.1,56,0.00,CLR,,0.00,WeatherDisplay:10.37,2013-04-28 16:14:00,
2013-04-28 12:19:00,85.1,67.1,30.06,SE,135,6.9,6.9,55,0.00,CLR,,0.00,WeatherDisplay:10.37,2013-04-28 16:19:00,
2013-04-28 12:24:00,85.3,67.3,30.06,East,90,6.9,6.9,55,0.00,CLR,,0.00,WeatherDisplay:10.37,2013-04-28 16:24:00,
2013-04-28 12:29:00,85.8,67.3,30.06,SE,135,3.5,4.8,54,0.00,CLR,,0.00,WeatherDisplay:10.37,2013-04-28 16:29:00,
2013-04-28 12:34:00,85.6,67.1,30.06,East,90,6.9,6.9,54,0.00,CLR,,0.00,WeatherDisplay:10.37,2013-04-28 16:34:00,
2013-04-28 12:39:00,85.8,66.7,30.06,East,90,5.8,5.8,53,0.00,CLR,,0.00,WeatherDisplay:10.37,2013-04-28 16:39:00,
2013-04-28 12:44:00,86.0,67.4,30.06,ESE,112,9.2,9.2,54,0.00,CLR,,0.00,WeatherDisplay:10.37,2013-04-28 16:44:00,
2013-04-28 12:49:00,86.4,67.2,30.06,ENE,68,8.1,8.1,53,0.00,CLR,,0.00,WeatherDisplay:10.37,2013-04-28 16:49:00,
2013-04-28 12:54:00,86.4,67.2,30.06,ENE,68,5.8,5.8,53,0.00,CLR,,0.00,WeatherDisplay:10.37,2013-04-28 16:54:00,
2013-04-28 12:59:00,86.5,67.4,30.05,ENE,68,6.9,6.9,53,0.00,CLR,,0.00,WeatherDisplay:10.37,2013-04-28 16:59:00,
2013-04-28 13:04:00,86.7,67.5,30.05,WNW,292,8.1,8.1,53,0.00,CLR,,0.00,WeatherDisplay:10.37,2013-04-28 17:04:00,
2013-04-28 13:09:00,86.5,66.8,30.05,SE,135,5.8,5.8,52,0.00,CLR,,0.00,WeatherDisplay:10.37,2013-04-28 17:09:00,
2013-04-28 13:14:00,87.1,67.3,30.05,SE,135,8.1,8.1,52,0.00,CLR,,0.00,WeatherDisplay:10.37,2013-04-28 17:14:00,
2013-04-28 13:19:00,87.4,67.1,30.06,ENE,68,8.1,8.1,51,0.00,CLR,,0.00,WeatherDisplay:10.37,2013-04-28 17:19:00,
2013-04-28 13:24:00,87.4,67.1,30.06,NNE,22,4.6,4.6,51,0.00,CLR,,0.00,WeatherDisplay:10.37,2013-04-28 17:24:00,
2013-04-28 13:29:00,87.6,66.7,30.06,ESE,112,3.5,4.4,50,0.00,CLR,,0.00,WeatherDisplay:10.37,2013-04-28 17:29:00,
2013-04-28 13:34:00,87.4,66.5,30.06,ENE,68,6.9,6.9,50,0.00,CLR,,0.00,WeatherDisplay:10.37,2013-04-28 17:34:00,
2013-04-28 13:39:00,87.6,66.7,30.05,ESE,112,8.1,8.1,50,0.00,CLR,,0.00,WeatherDisplay:10.37,2013-04-28 17:39:00,
2013-04-28 13:44:00,88.0,66.4,30.05,ENE,68,8.1,8.1,49,0.00,CLR,,0.00,WeatherDisplay:10.37,2013-04-28 17:44:00,
2013-04-28 13:49:00,87.8,66.3,30.05,ENE,68,5.8,5.8,49,0.00,CLR,,0.00,WeatherDisplay:10.37,2013-04-28 17:49:00,
2013-04-28 13:54:00,88.3,66.8,30.05,ESE,112,5.8,5.8,49,0.00,CLR,,0.00,WeatherDisplay:10.37,2013-04-28 17:54:00,
2013-04-28 13:59:00,88.5,66.3,30.05,ENE,68,9.2,9.2,48,0.00,CLR,,0.00,WeatherDisplay:10.37,2013-04-28 17:59:00,
2013-04-28 14:04:00,88.7,66.5,30.05,ESE,112,4.6,5.1,48,0.00,CLR,,0.00,WeatherDisplay:10.37,2013-04-28 18:04:00,
2013-04-28 14:09:00,88.5,66.3,30.05,East,90,3.5,4.6,48,0.00,CLR,,0.00,WeatherDisplay:10.37,2013-04-28 18:09:00,
2013-04-28 14:15:00,89.1,66.8,30.05,ENE,68,8.1,8.1,48,0.00,CLR,,0.00,WeatherDisplay:10.37,2013-04-28 18:15:00,
2013-04-28 14:20:00,88.7,66.5,30.05,NE,45,6.9,6.9,48,0.00,CLR,,0.00,WeatherDisplay:10.37,2013-04-28 18:20:00,
2013-04-28 14:25:00,89.1,66.2,30.05,ESE,112,9.2,9.2,47,0.00,CLR,,0.00,WeatherDisplay:10.37,2013-04-28 18:25:00,
2013-04-28 14:30:00,88.7,66.5,30.05,East,90,3.5,5.3,48,0.00,CLR,,0.00,WeatherDisplay:10.37,2013-04-28 18:30:00,
2013-04-28 14:35:00,88.7,65.9,30.05,ESE,112,9.2,9.2,47,0.00,CLR,,0.00,WeatherDisplay:10.37,2013-04-28 18:35:00,
2013-04-28 14:40:00,88.7,66.5,30.03,ENE,68,6.9,6.9,48,0.00,CLR,,0.00,WeatherDisplay:10.37,2013-04-28 18:40:00,
2013-04-28 14:45:00,88.5,65.7,30.03,ESE,112,9.2,9.2,47,0.00,CLR,,0.00,WeatherDisplay:10.37,2013-04-28 18:45:00,
2013-04-28 14:50:00,88.3,64.9,30.03,ESE,112,9.2,9.2,46,0.00,CLR,,0.00,WeatherDisplay:10.37,2013-04-28 18:50:00,
2013-04-28 14:55:00,88.2,64.8,30.03,SSW,202,5.8,5.8,46,0.00,CLR,,0.00,WeatherDisplay:10.37,2013-04-28 18:55:00,
2013-04-28 15:00:00,88.0,65.2,30.03,ESE,112,5.8,5.8,47,0.00,CLR,,0.00,WeatherDisplay:10.37,2013-04-28 19:00:00,
2013-04-28 15:05:00,88.3,66.2,30.03,East,90,8.1,8.1,48,0.00,CLR,,0.00,WeatherDisplay:10.37,2013-04-28 19:05:00,
2013-04-28 15:10:00,88.7,65.9,30.03,SE,135,6.9,6.9,47,0.00,CLR,,0.00,WeatherDisplay:10.37,2013-04-28 19:10:00,
2013-04-28 15:15:00,88.2,66.0,30.03,SE,135,5.8,5.8,48,0.00,CLR,,0.00,WeatherDisplay:10.37,2013-04-28 19:15:00,
2013-04-28 15:20:00,88.0,65.8,30.02,East,90,11.5,11.5,48,0.00,CLR,,0.00,WeatherDisplay:10.37,2013-04-28 19:20:00,
2013-04-28 15:25:00,87.6,65.5,30.02,SE,135,6.9,6.9,48,0.00,CLR,,0.00,WeatherDisplay:10.37,2013-04-28 19:25:00,
2013-04-28 15:30:00,87.1,65.6,30.02,SE,135,9.2,9.2,49,0.00,CLR,,0.00,WeatherDisplay:10.37,2013-04-28 19:30:00,
2013-04-28 15:35:00,87.1,65.0,30.02,SE,135,6.9,6.9,48,0.00,CLR,,0.00,WeatherDisplay:10.37,2013-04-28 19:35:00,
2013-04-28 15:40:00,87.4,64.7,30.01,SSE,158,6.9,6.9,47,0.00,CLR,,0.00,WeatherDisplay:10.37,2013-04-28 19:40:00,
2013-04-28 15:45:00,87.1,64.4,30.01,East,90,6.9,6.9,47,0.00,CLR,,0.00,WeatherDisplay:10.37,2013-04-28 19:45:00,
2013-04-28 15:50:00,87.6,65.5,30.01,NE,45,4.6,4.9,48,0.00,CLR,,0.00,WeatherDisplay:10.37,2013-04-28 19:50:00,
2013-04-28 15:55:00,87.1,64.4,30.01,ENE,68,5.8,5.8,47,0.00,CLR,,0.00,WeatherDisplay:10.37,2013-04-28 19:55:00,
2013-04-28 16:00:00,86.9,64.8,30.00,ESE,112,8.1,8.1,48,0.00,CLR,,0.00,WeatherDisplay:10.37,2013-04-28 20:00:00,
2013-04-28 16:05:00,86.7,64.1,30.00,ENE,68,6.9,6.9,47,0.00,CLR,,0.00,WeatherDisplay:10.37,2013-04-28 20:05:00,
2013-04-28 16:10:00,86.9,65.4,30.00,ESE,112,5.8,5.8,49,0.00,CLR,,0.00,WeatherDisplay:10.37,2013-04-28 20:10:00,
2013-04-28 16:15:00,86.7,64.7,30.00,ESE,112,5.8,5.8,48,0.00,CLR,,0.00,WeatherDisplay:10.37,2013-04-28 20:15:00,
2013-04-28 16:20:00,86.7,65.3,29.99,SE,135,6.9,6.9,49,0.00,CLR,,0.00,WeatherDisplay:10.37,2013-04-28 20:20:00,
2013-04-28 16:25:00,86.5,65.1,29.99,East,90,6.9,6.9,49,0.00,CLR,,0.00,WeatherDisplay:10.37,2013-04-28 20:25:00,
2013-04-28 16:30:00,86.5,65.1,29.99,East,90,5.8,5.8,49,0.00,CLR,,0.00,WeatherDisplay:10.37,2013-04-28 20:30:00,
2013-04-28 16:35:00,86.5,65.1,29.99,ENE,68,9.2,9.2,49,0.00,CLR,,0.00,WeatherDisplay:10.37,2013-04-28 20:35:00,
2013-04-28 16:40:00,86.2,65.4,29.98,SE,135,6.9,6.9,50,0.00,CLR,,0.00,WeatherDisplay:10.37,2013-04-28 20:40:00,
2013-04-28 16:45:00,86.4,65.5,29.98,ENE,68,8.1,8.1,50,0.00,CLR,,0.00,WeatherDisplay:10.37,2013-04-28 20:45:00,
2013-04-28 16:50:00,86.2,65.4,29.98,ESE,112,8.1,8.1,50,0.00,CLR,,0.00,WeatherDisplay:10.37,2013-04-28 20:50:00,
2013-04-28 16:55:00,85.6,65.4,29.98,NNE,22,5.8,5.8,51,0.00,CLR,,0.00,WeatherDisplay:10.37,2013-04-28 20:55:00,
2013-04-28 17:00:00,85.8,65.6,29.98,ESE,112,5.8,5.8,51,0.00,CLR,,0.00,WeatherDisplay:10.37,2013-04-28 21:00:00,
2013-04-28 17:05:00,85.5,65.3,29.98,East,90,6.9,6.9,51,0.00,CLR,,0.00,WeatherDisplay:10.37,2013-04-28 21:05:00,
2013-04-28 17:10:00,85.1,65.5,29.98,East,90,6.9,6.9,52,0.00,CLR,,0.00,WeatherDisplay:10.37,2013-04-28 21:10:00,
2013-04-28 17:15:00,84.9,65.3,29.98,East,90,6.9,6.9,52,0.00,CLR,,0.00,WeatherDisplay:10.37,2013-04-28 21:15:00,
2013-04-28 17:20:00,84.7,65.7,29.98,ENE,68,8.1,8.1,53,0.00,CLR,,0.00,WeatherDisplay:10.37,2013-04-28 21:20:00,
2013-04-28 17:25:00,84.6,65.5,29.98,NE,45,5.8,5.8,53,0.00,CLR,,0.00,WeatherDisplay:10.37,2013-04-28 21:25:00,
2013-04-28 17:30:00,84.2,65.2,29.98,ESE,112,6.9,6.9,53,0.00,CLR,,0.00,WeatherDisplay:10.37,2013-04-28 21:30:00,
2013-04-28 17:35:00,83.8,64.9,29.98,NNE,22,6.9,6.9,53,0.00,CLR,,0.00,WeatherDisplay:10.37,2013-04-28 21:35:00,
2013-04-28 17:40:00,83.8,65.4,29.97,ENE,68,6.9,6.9,54,0.00,CLR,,0.00,WeatherDisplay:10.37,2013-04-28 21:40:00,
2013-04-28 17:45:00,83.8,65.4,29.97,ESE,112,6.9,6.9,54,0.00,CLR,,0.00,WeatherDisplay:10.37,2013-04-28 21:45:00,
2013-04-28 17:50:00,83.7,65.8,29.97,ESE,112,5.8,5.8,55,0.00,CLR,,0.00,WeatherDisplay:10.37,2013-04-28 21:50:00,
2013-04-28 17:55:00,83.1,65.3,29.97,SE,135,6.9,6.9,55,0.00,CLR,,0.00,WeatherDisplay:10.37,2013-04-28 21:55:00,
2013-04-28 18:00:00,83.1,65.3,29.97,ENE,68,8.1,8.1,55,0.00,CLR,,0.00,WeatherDisplay:10.37,2013-04-28 22:00:00,
2013-04-28 18:05:00,82.9,65.1,29.97,SE,135,6.9,6.9,55,0.00,CLR,,0.00,WeatherDisplay:10.37,2013-04-28 22:05:00,
2013-04-28 18:10:00,82.4,65.1,29.97,SE,135,5.8,5.8,56,0.00,CLR,,0.00,WeatherDisplay:10.37,2013-04-28 22:10:00,
2013-04-28 18:15:00,82.4,65.1,29.97,ENE,68,5.8,5.8,56,0.00,CLR,,0.00,WeatherDisplay:10.37,2013-04-28 22:15:00,
2013-04-28 18:20:00,82.2,65.0,29.97,ENE,68,6.9,6.9,56,0.00,CLR,,0.00,WeatherDisplay:10.37,2013-04-28 22:20:00,
2013-04-28 18:25:00,82.4,64.6,29.97,ENE,68,8.1,8.1,55,0.00,CLR,,0.00,WeatherDisplay:10.37,2013-04-28 22:25:00,
2013-04-28 18:30:00,82.0,64.3,29.97,NE,45,4.6,4.6,55,0.00,CLR,,0.00,WeatherDisplay:10.37,2013-04-28 22:30:00,
2013-04-28 18:35:00,81.9,64.6,29.97,ESE,112,6.9,6.9,56,0.00,CLR,,0.00,WeatherDisplay:10.37,2013-04-28 22:35:00,
2013-04-28 18:40:00,81.9,64.6,29.97,SE,135,9.2,9.2,56,0.00,CLR,,0.00,WeatherDisplay:10.37,2013-04-28 22:40:00,
2013-04-28 18:45:00,81.3,64.6,29.97,SE,135,4.6,4.6,57,0.00,CLR,,0.00,WeatherDisplay:10.37,2013-04-28 22:45:00,
2013-04-28 18:50:00,81.1,64.0,29.97,ESE,112,8.1,8.1,56,0.00,CLR,,0.00,WeatherDisplay:10.37,2013-04-28 22:50:00,
2013-04-28 18:55:00,81.0,64.3,29.97,ESE,112,5.8,5.8,57,0.00,CLR,,0.00,WeatherDisplay:10.37,2013-04-28 22:55:00,
2013-04-28 19:00:00,81.0,64.3,29.96,ESE,112,6.9,6.9,57,0.00,CLR,,0.00,WeatherDisplay:10.37,2013-04-28 23:00:00,
2013-04-28 19:05:00,80.8,64.1,29.96,ESE,112,6.9,6.9,57,0.00,CLR,,0.00,WeatherDisplay:10.37,2013-04-28 23:05:00,
2013-04-28 19:10:00,80.8,64.1,29.96,ESE,112,8.1,8.1,57,0.00,CLR,,0.00,WeatherDisplay:10.37,2013-04-28 23:10:00,
2013-04-28 19:15:00,80.4,63.3,29.96,East,90,4.6,4.6,56,0.00,CLR,,0.00,WeatherDisplay:10.37,2013-04-28 23:15:00,
2013-04-28 19:20:00,80.1,63.5,29.97,East,90,5.8,5.8,57,0.00,CLR,,0.00,WeatherDisplay:10.37,2013-04-28 23:20:00,
2013-04-28 19:25:00,80.2,64.1,29.97,SE,135,8.1,8.1,58,0.00,CLR,,0.00,WeatherDisplay:10.37,2013-04-28 23:25:00,
2013-04-28 19:30:00,80.1,64.0,29.97,SE,135,4.6,4.6,58,0.00,CLR,,0.00,WeatherDisplay:10.37,2013-04-28 23:30:00,
2013-04-28 19:35:00,80.1,64.0,29.97,ENE,68,3.5,4.3,58,0.00,CLR,,0.00,WeatherDisplay:10.37,2013-04-28 23:35:00,
2013-04-28 19:40:00,79.9,64.3,29.97,SE,135,5.8,5.8,59,0.00,CLR,,0.00,WeatherDisplay:10.37,2013-04-28 23:40:00,
2013-04-28 19:45:00,79.5,64.4,29.97,ENE,68,2.3,3.8,60,0.00,CLR,,0.00,WeatherDisplay:10.37,2013-04-28 23:45:00,
2013-04-28 19:50:00,79.5,64.4,29.97,ESE,112,4.6,4.6,60,0.00,CLR,,0.00,WeatherDisplay:10.37,2013-04-28 23:50:00,
2013-04-28 19:55:00,79.2,64.1,29.97,ESE,112,5.8,5.8,60,0.00,CLR,,0.00,WeatherDisplay:10.37,2013-04-28 23:55:00,
2013-04-28 20:00:00,79.3,64.2,29.98,SE,135,6.9,6.9,60,0.00,CLR,,0.00,WeatherDisplay:10.37,2013-04-29 00:00:00,
2013-04-28 20:05:00,79.0,64.4,29.98,ESE,112,3.5,4.6,61,0.00,CLR,,0.00,WeatherDisplay:10.37,2013-04-29 00:05:00,
2013-04-28 20:10:00,79.0,64.4,29.98,SE,135,8.1,8.1,61,0.00,CLR,,0.00,WeatherDisplay:10.37,2013-04-29 00:10:00,
2013-04-28 20:15:00,78.8,64.2,29.98,SE,135,3.5,3.9,61,0.00,CLR,,0.00,WeatherDisplay:10.37,2013-04-29 00:15:00,
2013-04-28 20:20:00,78.8,64.2,29.98,ESE,112,6.9,6.9,61,0.00,CLR,,0.00,WeatherDisplay:10.37,2013-04-29 00:20:00,
2013-04-28 20:25:00,79.0,64.8,29.98,SSE,158,5.8,5.8,62,0.00,CLR,,0.00,WeatherDisplay:10.37,2013-04-29 00:25:00,
2013-04-28 20:30:00,79.0,64.4,29.98,ENE,68,4.6,4.6,61,0.00,CLR,,0.00,WeatherDisplay:10.37,2013-04-29 00:30:00,
2013-04-28 20:35:00,78.4,63.9,29.98,SE,135,9.2,9.2,61,0.00,CLR,,0.00,WeatherDisplay:10.37,2013-04-29 00:35:00,
2013-04-28 20:40:00,78.4,64.3,29.98,SE,135,6.9,6.9,62,0.00,CLR,,0.00,WeatherDisplay:10.37,2013-04-29 00:40:00,
2013-04-28 20:45:00,78.3,64.2,29.98,SE,135,6.9,6.9,62,0.00,CLR,,0.00,WeatherDisplay:10.37,2013-04-29 00:45:00,
2013-04-28 20:50:00,78.1,64.0,29.98,ENE,68,5.8,5.8,62,0.00,CLR,,0.00,WeatherDisplay:10.37,2013-04-29 00:50:00,
2013-04-28 20:55:00,78.1,64.5,29.97,East,90,4.6,4.6,63,0.00,CLR,,0.00,WeatherDisplay:10.37,2013-04-29 00:55:00,
2013-04-28 21:00:00,78.1,64.9,29.97,SE,135,5.8,5.8,64,0.00,CLR,,0.00,WeatherDisplay:10.37,2013-04-29 01:00:00,
2013-04-28 21:05:00,78.1,64.5,29.97,SE,135,3.5,4.3,63,0.00,CLR,,0.00,WeatherDisplay:10.37,2013-04-29 01:05:00,
2013-04-28 21:10:00,78.1,64.5,29.97,East,90,4.6,4.6,63,0.00,CLR,,0.00,WeatherDisplay:10.37,2013-04-29 01:10:00,
2013-04-28 21:15:00,77.9,64.3,29.97,SE,135,9.2,9.2,63,0.00,CLR,,0.00,WeatherDisplay:10.37,2013-04-29 01:15:00,
2013-04-28 21:20:00,77.9,64.3,29.97,ESE,112,5.8,5.8,63,0.00,CLR,,0.00,WeatherDisplay:10.37,2013-04-29 01:20:00,
2013-04-28 21:25:00,77.9,64.3,29.97,SE,135,4.6,4.6,63,0.00,CLR,,0.00,WeatherDisplay:10.37,2013-04-29 01:25:00,
2013-04-28 21:30:00,77.9,64.3,29.97,East,90,4.6,4.6,63,0.00,CLR,,0.00,WeatherDisplay:10.37,2013-04-29 01:30:00,
2013-04-28 21:36:00,77.7,64.1,29.98,SSE,158,4.6,4.6,63,0.00,CLR,,0.00,WeatherDisplay:10.37,2013-04-29 01:36:00,
2013-04-28 21:41:00,77.7,64.1,29.98,East,90,6.9,6.9,63,0.00,CLR,,0.00,WeatherDisplay:10.37,2013-04-29 01:41:00,
2013-04-28 21:46:00,77.5,64.4,29.98,SSE,158,6.9,6.9,64,0.00,CLR,,0.00,WeatherDisplay:10.37,2013-04-29 01:46:00,
2013-04-28 21:51:00,77.5,64.4,29.98,ESE,112,4.6,4.6,64,0.00,CLR,,0.00,WeatherDisplay:10.37,2013-04-29 01:51:00,
2013-04-28 21:56:00,77.5,64.4,29.99,ESE,112,4.6,4.6,64,0.00,CLR,,0.00,WeatherDisplay:10.37,2013-04-29 01:56:00,
2013-04-28 22:01:00,77.7,64.6,29.99,ESE,112,4.6,4.6,64,0.00,CLR,,0.00,WeatherDisplay:10.37,2013-04-29 02:01:00,
2013-04-28 22:06:00,77.4,64.7,29.99,ENE,68,5.8,5.8,65,0.00,CLR,,0.00,WeatherDisplay:10.37,2013-04-29 02:06:00,
2013-04-28 22:11:00,77.4,64.7,29.99,ESE,112,4.6,4.6,65,0.00,CLR,,0.00,WeatherDisplay:10.37,2013-04-29 02:11:00,
2013-04-28 22:16:00,77.5,64.4,29.99,East,90,4.6,4.6,64,0.00,CLR,,0.00,WeatherDisplay:10.37,2013-04-29 02:16:00,
2013-04-28 22:21:00,77.4,64.7,29.99,ESE,112,5.8,5.8,65,0.00,CLR,,0.00,WeatherDisplay:10.37,2013-04-29 02:21:00,
2013-04-28 22:26:00,77.4,64.7,29.99,ENE,68,6.9,6.9,65,0.00,CLR,,0.00,WeatherDisplay:10.37,2013-04-29 02:26:00,
2013-04-28 22:31:00,77.4,64.7,29.99,SE,135,6.9,6.9,65,0.00,CLR,,0.00,WeatherDisplay:10.37,2013-04-29 02:31:00,
2013-04-28 22:36:00,77.4,64.7,29.99,SW,225,6.9,6.9,65,0.00,CLR,,0.00,WeatherDisplay:10.37,2013-04-29 02:36:00,
2013-04-28 22:41:00,77.4,64.7,29.99,SE,135,8.1,8.1,65,0.00,CLR,,0.00,WeatherDisplay:10.37,2013-04-29 02:41:00,
2013-04-28 22:46:00,77.4,64.7,29.99,ESE,112,6.9,6.9,65,0.00,CLR,,0.00,WeatherDisplay:10.37,2013-04-29 02:46:00,
2013-04-28 22:51:00,77.5,64.8,29.99,East,90,3.5,4.5,65,0.00,CLR,,0.00,WeatherDisplay:10.37,2013-04-29 02:51:00,
2013-04-28 22:56:00,77.2,64.1,29.98,SE,135,5.8,5.8,64,0.00,CLR,,0.00,WeatherDisplay:10.37,2013-04-29 02:56:00,
2013-04-28 23:01:00,77.2,64.5,29.98,SE,135,9.2,9.2,65,0.00,CLR,,0.00,WeatherDisplay:10.37,2013-04-29 03:01:00,
2013-04-28 23:06:00,77.2,64.1,29.98,SE,135,5.8,5.8,64,0.00,CLR,,0.00,WeatherDisplay:10.37,2013-04-29 03:06:00,
2013-04-28 23:11:00,77.2,64.5,29.98,ESE,112,5.8,5.8,65,0.00,CLR,,0.00,WeatherDisplay:10.37,2013-04-29 03:11:00,
2013-04-28 23:16:00,77.4,65.1,29.98,ESE,112,6.9,6.9,66,0.00,CLR,,0.00,WeatherDisplay:10.37,2013-04-29 03:16:00,
2013-04-28 23:21:00,77.5,65.3,29.98,ESE,112,4.6,4.7,66,0.00,CLR,,0.00,WeatherDisplay:10.37,2013-04-29 03:21:00,
2013-04-28 23:26:00,77.4,65.1,29.98,SE,135,9.2,9.2,66,0.00,CLR,,0.00,WeatherDisplay:10.37,2013-04-29 03:26:00,
2013-04-28 23:31:00,77.4,65.1,29.98,SE,135,9.2,9.2,66,0.00,CLR,,0.00,WeatherDisplay:10.37,2013-04-29 03:31:00,
2013-04-28 23:36:00,77.5,65.3,29.99,ESE,112,6.9,6.9,66,0.00,CLR,,0.00,WeatherDisplay:10.37,2013-04-29 03:36:00,
2013-04-28 23:41:00,77.5,65.3,29.99,SE,135,8.1,8.1,66,0.00,CLR,,0.00,WeatherDisplay:10.37,2013-04-29 03:41:00,
2013-04-28 23:46:00,77.5,65.3,29.99,SE,135,12.7,12.7,66,0.00,CLR,,0.00,WeatherDisplay:10.37,2013-04-29 03:46:00,
2013-04-28 23:51:00,77.5,65.3,29.99,SE,135,5.8,6.9,66,0.00,CLR,,0.00,WeatherDisplay:10.37,2013-04-29 03:51:00,
2013-04-28 23:56:00,77.5,65.3,29.98,SE,135,6.9,6.9,66,0.00,CLR,,0.00,WeatherDisplay:10.37,2013-04-29 03:56:00,